sensor_id;sensor_type;location;lat;lon;timestamp;pressure;altitude;pressure_sealevel;temperature;humidity
61961;BME280;47923;42.506;24.192;2023-12-20T00:00:12;95845.81;;;-3.06;96.77
61961;BME280;47923;42.506;24.192;2023-12-20T00:02:38;95766.97;;;-3.54;96.68
61961;BME280;47923;42.506;24.192;2023-12-20T00:05:04;95846.06;;;-3.12;96.94
61961;BME280;47923;42.506;24.192;2023-12-20T00:07:29;95704.03;;;-4.03;96.95
61961;BME280;47923;42.506;24.192;2023-12-20T00:09:55;95837.88;;;-3.16;97.07
61961;BME280;47923;42.506;24.192;2023-12-20T00:12:20;95806.13;;;-3.36;96.79
61961;BME280;47923;42.506;24.192;2023-12-20T00:14:45;95867.22;;;-2.87;96.92
61961;BME280;47923;42.506;24.192;2023-12-20T00:17:11;95499.53;;;-5.14;96.92
61961;BME280;47923;42.506;24.192;2023-12-20T00:19:36;95536.53;;;-4.89;97.15
61961;BME280;47923;42.506;24.192;2023-12-20T00:22:02;95869.63;;;-2.90;97.53
61961;BME280;47923;42.506;24.192;2023-12-20T00:24:27;95793.97;;;-3.32;97.19
61961;BME280;47923;42.506;24.192;2023-12-20T00:26:53;95846.88;;;-3.07;97.18
61961;BME280;47923;42.506;24.192;2023-12-20T00:29:18;95787.59;;;-3.51;97.16
61961;BME280;47923;42.506;24.192;2023-12-20T00:31:43;95837.84;;;-3.11;97.12
61961;BME280;47923;42.506;24.192;2023-12-20T00:34:09;95837.06;;;-3.11;97.30
61961;BME280;47923;42.506;24.192;2023-12-20T00:36:34;95830.19;;;-3.17;97.12
61961;BME280;47923;42.506;24.192;2023-12-20T00:39:00;95531.72;;;-5.07;97.22
61961;BME280;47923;42.506;24.192;2023-12-20T00:41:25;95829.94;;;-3.06;97.45
61961;BME280;47923;42.506;24.192;2023-12-20T00:43:50;95836.56;;;-3.08;97.25
61961;BME280;47923;42.506;24.192;2023-12-20T00:46:16;95777.28;;;-3.48;97.28
61961;BME280;47923;42.506;24.192;2023-12-20T00:48:41;95727.06;;;-3.68;97.43
61961;BME280;47923;42.506;24.192;2023-12-20T00:51:07;95832.06;;;-3.08;97.60
61961;BME280;47923;42.506;24.192;2023-12-20T00:53:33;95819.59;;;-3.33;97.36
61961;BME280;47923;42.506;24.192;2023-12-20T00:55:58;95754.00;;;-3.66;97.31
61961;BME280;47923;42.506;24.192;2023-12-20T00:58:24;95720.66;;;-3.93;97.02
61961;BME280;47923;42.506;24.192;2023-12-20T01:00:49;95811.69;;;-3.22;97.37
61961;BME280;47923;42.506;24.192;2023-12-20T01:03:15;95675.47;;;-4.17;97.08
61961;BME280;47923;42.506;24.192;2023-12-20T01:05:40;95813.00;;;-3.25;97.32
61961;BME280;47923;42.506;24.192;2023-12-20T01:08:06;95817.19;;;-3.44;97.14
61961;BME280;47923;42.506;24.192;2023-12-20T01:10:31;95741.06;;;-3.68;97.22
61961;BME280;47923;42.506;24.192;2023-12-20T01:12:57;95798.44;;;-3.33;97.40
61961;BME280;47923;42.506;24.192;2023-12-20T01:15:22;95736.03;;;-3.79;97.00
61961;BME280;47923;42.506;24.192;2023-12-20T01:17:48;95785.47;;;-3.39;97.24
61961;BME280;47923;42.506;24.192;2023-12-20T01:20:14;95597.78;;;-4.56;96.92
61961;BME280;47923;42.506;24.192;2023-12-20T01:22:40;95602.56;;;-4.53;96.86
61961;BME280;47923;42.506;24.192;2023-12-20T01:25:05;95339.22;;;-6.41;96.62
61961;BME280;47923;42.506;24.192;2023-12-20T01:27:32;95351.00;;;-6.06;96.93
61961;BME280;47923;42.506;24.192;2023-12-20T01:29:57;95198.09;;;-6.93;97.05
61961;BME280;47923;42.506;24.192;2023-12-20T01:32:22;95773.88;;;-3.18;97.46
61961;BME280;47923;42.506;24.192;2023-12-20T01:34:48;95728.97;;;-3.43;97.18
61961;BME280;47923;42.506;24.192;2023-12-20T01:37:14;95510.44;;;-4.85;97.18
61961;BME280;47923;42.506;24.192;2023-12-20T01:39:39;95749.06;;;-3.27;97.48
61961;BME280;47923;42.506;24.192;2023-12-20T01:42:05;95692.72;;;-3.68;97.31
61961;BME280;47923;42.506;24.192;2023-12-20T01:44:30;95641.16;;;-4.11;97.43
61961;BME280;47923;42.506;24.192;2023-12-20T01:46:56;95753.00;;;-3.45;97.53
61961;BME280;47923;42.506;24.192;2023-12-20T01:49:22;95748.22;;;-3.53;96.93
61961;BME280;47923;42.506;24.192;2023-12-20T01:51:48;95656.25;;;-4.02;96.93
61961;BME280;47923;42.506;24.192;2023-12-20T01:54:14;95726.28;;;-3.53;97.23
61961;BME280;47923;42.506;24.192;2023-12-20T01:56:39;95708.31;;;-3.72;97.78
61961;BME280;47923;42.506;24.192;2023-12-20T01:59:06;95561.69;;;-4.51;97.35
61961;BME280;47923;42.506;24.192;2023-12-20T02:01:33;95422.28;;;-5.40;97.56
61961;BME280;47923;42.506;24.192;2023-12-20T02:03:59;95422.28;;;-5.40;97.45
61961;BME280;47923;42.506;24.192;2023-12-20T02:06:29;95473.47;;;-5.16;97.57
61961;BME280;47923;42.506;24.192;2023-12-20T02:08:55;95508.56;;;-4.95;97.12
61961;BME280;47923;42.506;24.192;2023-12-20T02:11:21;95708.59;;;-3.58;97.59
61961;BME280;47923;42.506;24.192;2023-12-20T02:13:46;95718.38;;;-3.53;98.03
61961;BME280;47923;42.506;24.192;2023-12-20T02:16:12;95619.00;;;-4.15;98.03
61961;BME280;47923;42.506;24.192;2023-12-20T02:18:37;95705.72;;;-3.51;97.66
61961;BME280;47923;42.506;24.192;2023-12-20T02:21:05;95643.09;;;-3.86;97.66
61961;BME280;47923;42.506;24.192;2023-12-20T02:23:31;95686.41;;;-3.57;97.75
61961;BME280;47923;42.506;24.192;2023-12-20T02:25:56;95697.78;;;-3.56;97.52
61961;BME280;47923;42.506;24.192;2023-12-20T02:28:21;95690.91;;;-3.57;97.83
61961;BME280;47923;42.506;24.192;2023-12-20T02:30:47;95602.41;;;-4.11;97.52
61961;BME280;47923;42.506;24.192;2023-12-20T02:33:15;95683.25;;;-3.54;97.65
61961;BME280;47923;42.506;24.192;2023-12-20T02:35:40;95676.38;;;-3.55;97.41
61961;BME280;47923;42.506;24.192;2023-12-20T02:38:06;95684.28;;;-3.55;97.56
61961;BME280;47923;42.506;24.192;2023-12-20T02:40:32;95581.25;;;-4.21;97.46
61961;BME280;47923;42.506;24.192;2023-12-20T02:42:57;95590.22;;;-4.27;96.93
61961;BME280;47923;42.506;24.192;2023-12-20T02:45:23;95144.16;;;-7.11;96.90
61961;BME280;47923;42.506;24.192;2023-12-20T02:47:48;95583.66;;;-4.25;97.61
61961;BME280;47923;42.506;24.192;2023-12-20T02:50:14;95644.13;;;-3.87;97.28
61961;BME280;47923;42.506;24.192;2023-12-20T02:52:39;95547.72;;;-4.46;97.31
61961;BME280;47923;42.506;24.192;2023-12-20T02:55:04;95500.97;;;-4.91;97.44
61961;BME280;47923;42.506;24.192;2023-12-20T02:57:30;95594.97;;;-4.19;97.31
61961;BME280;47923;42.506;24.192;2023-12-20T02:59:55;95584.44;;;-4.29;97.52
61961;BME280;47923;42.506;24.192;2023-12-20T03:02:21;95675.56;;;-3.76;97.60
61961;BME280;47923;42.506;24.192;2023-12-20T03:04:46;95672.66;;;-3.79;97.59
61961;BME280;47923;42.506;24.192;2023-12-20T03:07:11;95675.56;;;-3.81;97.37
61961;BME280;47923;42.506;24.192;2023-12-20T03:09:37;95631.91;;;-4.19;97.51
61961;BME280;47923;42.506;24.192;2023-12-20T03:12:03;95514.41;;;-4.88;97.45
61961;BME280;47923;42.506;24.192;2023-12-20T03:14:28;95358.69;;;-5.85;97.56
61961;BME280;47923;42.506;24.192;2023-12-20T03:16:54;95662.38;;;-3.81;97.85
61961;BME280;47923;42.506;24.192;2023-12-20T03:19:19;95665.50;;;-3.84;97.84
61961;BME280;47923;42.506;24.192;2023-12-20T03:21:45;95597.84;;;-4.41;97.48
61961;BME280;47923;42.506;24.192;2023-12-20T03:24:11;95565.94;;;-4.34;97.80
61961;BME280;47923;42.506;24.192;2023-12-20T03:26:36;95670.28;;;-3.76;98.01
61961;BME280;47923;42.506;24.192;2023-12-20T03:29:01;95370.09;;;-5.64;97.64
61961;BME280;47923;42.506;24.192;2023-12-20T03:31:27;95656.81;;;-3.84;97.82
61961;BME280;47923;42.506;24.192;2023-12-20T03:33:52;95135.94;;;-7.25;96.86
61961;BME280;47923;42.506;24.192;2023-12-20T03:36:19;95651.50;;;-3.90;97.68
61961;BME280;47923;42.506;24.192;2023-12-20T03:38:45;95437.06;;;-5.29;97.70
61961;BME280;47923;42.506;24.192;2023-12-20T03:41:11;95655.75;;;-3.88;97.94
61961;BME280;47923;42.506;24.192;2023-12-20T03:43:36;95543.47;;;-4.67;97.79
61961;BME280;47923;42.506;24.192;2023-12-20T03:46:03;95641.75;;;-3.94;97.86
61961;BME280;47923;42.506;24.192;2023-12-20T03:48:30;95645.19;;;-3.94;97.86
61961;BME280;47923;42.506;24.192;2023-12-20T03:50:56;95469.28;;;-5.12;97.64
61961;BME280;47923;42.506;24.192;2023-12-20T03:53:22;95645.69;;;-4.02;97.74
61961;BME280;47923;42.506;24.192;2023-12-20T03:55:47;95548.94;;;-4.79;97.50
61961;BME280;47923;42.506;24.192;2023-12-20T03:58:13;95645.13;;;-4.14;97.64
61961;BME280;47923;42.506;24.192;2023-12-20T04:00:38;95647.00;;;-4.09;97.76
61961;BME280;47923;42.506;24.192;2023-12-20T04:03:04;95639.09;;;-4.09;97.82
61961;BME280;47923;42.506;24.192;2023-12-20T04:05:29;95638.56;;;-4.06;97.71
61961;BME280;47923;42.506;24.192;2023-12-20T04:07:55;95641.72;;;-4.04;97.83
61961;BME280;47923;42.506;24.192;2023-12-20T04:10:20;95637.53;;;-3.85;98.11
61961;BME280;47923;42.506;24.192;2023-12-20T04:12:45;95630.69;;;-3.81;98.21
61961;BME280;47923;42.506;24.192;2023-12-20T04:15:11;95646.00;;;-3.88;97.77
61961;BME280;47923;42.506;24.192;2023-12-20T04:17:37;95600.28;;;-4.14;97.76
61961;BME280;47923;42.506;24.192;2023-12-20T04:20:03;95642.78;;;-4.05;97.39
61961;BME280;47923;42.506;24.192;2023-12-20T04:22:28;95625.09;;;-4.05;97.52
61961;BME280;47923;42.506;24.192;2023-12-20T04:24:54;95557.22;;;-4.50;97.32
61961;BME280;47923;42.506;24.192;2023-12-20T04:27:19;95546.50;;;-5.01;97.19
61961;BME280;47923;42.506;24.192;2023-12-20T04:29:44;95615.06;;;-4.18;97.25
61961;BME280;47923;42.506;24.192;2023-12-20T04:32:10;95143.56;;;-7.23;96.58
61961;BME280;47923;42.506;24.192;2023-12-20T04:34:36;95609.22;;;-4.20;97.59
61961;BME280;47923;42.506;24.192;2023-12-20T04:37:01;95327.34;;;-6.01;97.34
61961;BME280;47923;42.506;24.192;2023-12-20T04:39:27;95602.09;;;-4.20;97.56
61961;BME280;47923;42.506;24.192;2023-12-20T04:41:52;95462.44;;;-5.13;97.59
61961;BME280;47923;42.506;24.192;2023-12-20T04:44:18;95613.44;;;-4.19;97.70
61961;BME280;47923;42.506;24.192;2023-12-20T04:46:43;95286.38;;;-6.45;97.31
61961;BME280;47923;42.506;24.192;2023-12-20T04:49:09;95546.31;;;-4.84;97.45
61961;BME280;47923;42.506;24.192;2023-12-20T04:51:34;95613.72;;;-4.31;97.80
61961;BME280;47923;42.506;24.192;2023-12-20T04:54:01;95558.69;;;-4.80;97.57
61961;BME280;47923;42.506;24.192;2023-12-20T04:56:26;95559.41;;;-5.00;97.19
61961;BME280;47923;42.506;24.192;2023-12-20T04:58:51;95610.78;;;-4.34;97.74
61961;BME280;47923;42.506;24.192;2023-12-20T05:01:17;95611.03;;;-4.36;97.62
61961;BME280;47923;42.506;24.192;2023-12-20T05:03:42;95578.81;;;-4.58;97.42
61961;BME280;47923;42.506;24.192;2023-12-20T05:06:09;95589.13;;;-4.52;97.51
61961;BME280;47923;42.506;24.192;2023-12-20T05:08:35;95580.66;;;-4.59;97.67
61961;BME280;47923;42.506;24.192;2023-12-20T05:11:00;95447.59;;;-5.29;97.86
61961;BME280;47923;42.506;24.192;2023-12-20T05:13:26;95108.53;;;-7.44;97.23
61961;BME280;47923;42.506;24.192;2023-12-20T05:15:51;95033.47;;;-7.92;97.25
61961;BME280;47923;42.506;24.192;2023-12-20T05:18:16;95579.69;;;-4.22;98.01
61961;BME280;47923;42.506;24.192;2023-12-20T05:20:42;95483.78;;;-5.04;97.74
61961;BME280;47923;42.506;24.192;2023-12-20T05:23:07;95432.34;;;-5.27;97.75
61961;BME280;47923;42.506;24.192;2023-12-20T05:25:33;95548.25;;;-4.54;97.42
61961;BME280;47923;42.506;24.192;2023-12-20T05:27:58;95468.47;;;-5.07;97.57
61961;BME280;47923;42.506;24.192;2023-12-20T05:30:24;95515.75;;;-4.80;97.54
61961;BME280;47923;42.506;24.192;2023-12-20T05:32:49;95486.44;;;-4.94;97.80
61961;BME280;47923;42.506;24.192;2023-12-20T05:35:15;95593.38;;;-4.40;97.59
61961;BME280;47923;42.506;24.192;2023-12-20T05:37:41;95279.81;;;-6.42;97.23
61961;BME280;47923;42.506;24.192;2023-12-20T05:40:06;95589.13;;;-4.47;97.51
61961;BME280;47923;42.506;24.192;2023-12-20T05:42:35;95457.66;;;-5.21;98.02
61961;BME280;47923;42.506;24.192;2023-12-20T05:45:01;95503.88;;;-4.83;97.95
61961;BME280;47923;42.506;24.192;2023-12-20T05:47:26;95564.59;;;-4.42;98.22
61961;BME280;47923;42.506;24.192;2023-12-20T05:49:51;95487.78;;;-4.86;97.98
61961;BME280;47923;42.506;24.192;2023-12-20T05:52:17;95122.88;;;-7.14;97.58
61961;BME280;47923;42.506;24.192;2023-12-20T05:54:42;95554.59;;;-4.35;98.17
61961;BME280;47923;42.506;24.192;2023-12-20T05:57:08;95539.31;;;-4.33;98.16
61961;BME280;47923;42.506;24.192;2023-12-20T05:59:33;95547.50;;;-4.24;98.44
61961;BME280;47923;42.506;24.192;2023-12-20T06:01:59;95371.22;;;-5.39;98.21
61961;BME280;47923;42.506;24.192;2023-12-20T06:04:24;95534.84;;;-4.17;98.16
61961;BME280;47923;42.506;24.192;2023-12-20T06:06:49;95518.75;;;-4.21;98.10
61961;BME280;47923;42.506;24.192;2023-12-20T06:09:15;95532.19;;;-4.27;98.32
61961;BME280;47923;42.506;24.192;2023-12-20T06:11:40;95422.69;;;-4.86;97.65
61961;BME280;47923;42.506;24.192;2023-12-20T06:14:06;95465.91;;;-4.87;97.62
61961;BME280;47923;42.506;24.192;2023-12-20T06:16:31;95503.44;;;-4.24;97.66
61961;BME280;47923;42.506;24.192;2023-12-20T06:18:57;95513.19;;;-4.19;97.76
61961;BME280;47923;42.506;24.192;2023-12-20T06:21:22;95378.69;;;-4.90;97.47
61961;BME280;47923;42.506;24.192;2023-12-20T06:23:50;95534.84;;;-3.81;97.37
61961;BME280;47923;42.506;24.192;2023-12-20T06:26:16;95537.47;;;-3.76;97.27
61961;BME280;47923;42.506;24.192;2023-12-20T06:28:41;95533.78;;;-3.65;97.59
61961;BME280;47923;42.506;24.192;2023-12-20T06:31:07;95531.66;;;-3.63;97.12
61961;BME280;47923;42.506;24.192;2023-12-20T06:33:32;95135.81;;;-6.25;96.58
61961;BME280;47923;42.506;24.192;2023-12-20T06:35:58;95512.63;;;-3.55;96.99
61961;BME280;47923;42.506;24.192;2023-12-20T06:38:23;95457.25;;;-3.85;96.42
61961;BME280;47923;42.506;24.192;2023-12-20T06:40:48;95505.97;;;-3.27;96.32
61961;BME280;47923;42.506;24.192;2023-12-20T06:43:14;95389.41;;;-3.90;95.94
61961;BME280;47923;42.506;24.192;2023-12-20T06:45:39;95169.25;;;-5.23;95.97
61961;BME280;47923;42.506;24.192;2023-12-20T06:48:06;95524.78;;;-2.74;95.82
61961;BME280;47923;42.506;24.192;2023-12-20T06:50:31;95494.66;;;-2.00;97.73
61961;BME280;47923;42.506;24.192;2023-12-20T06:52:57;95255.59;;;-1.38;91.93
61961;BME280;47923;42.506;24.192;2023-12-20T06:55:22;95266.25;;;0.14;80.08
61961;BME280;47923;42.506;24.192;2023-12-20T06:57:48;95501.53;;;2.92;71.89
61961;BME280;47923;42.506;24.192;2023-12-20T07:00:14;95499.16;;;3.30;67.13
61961;BME280;47923;42.506;24.192;2023-12-20T07:02:39;95419.97;;;2.60;64.52
61961;BME280;47923;42.506;24.192;2023-12-20T07:05:05;95504.44;;;2.42;68.14
61961;BME280;47923;42.506;24.192;2023-12-20T07:07:31;95421.84;;;1.39;69.78
61961;BME280;47923;42.506;24.192;2023-12-20T07:09:56;95506.53;;;1.51;72.95
61961;BME280;47923;42.506;24.192;2023-12-20T07:12:22;95516.31;;;1.42;74.24
61961;BME280;47923;42.506;24.192;2023-12-20T07:14:47;95516.25;;;2.05;74.70
61961;BME280;47923;42.506;24.192;2023-12-20T07:17:13;95414.34;;;3.19;68.35
61961;BME280;47923;42.506;24.192;2023-12-20T07:19:40;95388.97;;;4.29;61.46
61961;BME280;47923;42.506;24.192;2023-12-20T07:22:06;95289.72;;;3.75;59.57
61961;BME280;47923;42.506;24.192;2023-12-20T07:24:32;95225.50;;;2.15;63.78
61961;BME280;47923;42.506;24.192;2023-12-20T07:27:00;95495.28;;;3.45;64.26
61961;BME280;47923;42.506;24.192;2023-12-20T07:29:25;95143.19;;;2.14;64.68
61961;BME280;47923;42.506;24.192;2023-12-20T07:31:52;95492.25;;;5.95;56.35
61961;BME280;47923;42.506;24.192;2023-12-20T07:34:19;95497.00;;;7.34;52.95
61961;BME280;47923;42.506;24.192;2023-12-20T07:36:44;95475.06;;;8.65;48.69
61961;BME280;47923;42.506;24.192;2023-12-20T07:39:10;95009.34;;;6.40;46.20
61961;BME280;47923;42.506;24.192;2023-12-20T07:41:35;95185.41;;;8.32;44.01
61961;BME280;47923;42.506;24.192;2023-12-20T07:44:01;95385.06;;;9.48;42.82
61961;BME280;47923;42.506;24.192;2023-12-20T07:46:26;95471.56;;;10.91;42.42
61961;BME280;47923;42.506;24.192;2023-12-20T07:48:51;95405.84;;;10.87;41.31
61961;BME280;47923;42.506;24.192;2023-12-20T07:51:17;95241.81;;;9.92;41.35
61961;BME280;47923;42.506;24.192;2023-12-20T07:53:42;95082.16;;;9.90;40.89
61961;BME280;47923;42.506;24.192;2023-12-20T07:56:18;95310.25;;;10.45;41.36
61961;BME280;47923;42.506;24.192;2023-12-20T07:58:44;95417.91;;;10.47;43.34
61961;BME280;47923;42.506;24.192;2023-12-20T08:01:10;95413.59;;;9.84;43.69
61961;BME280;47923;42.506;24.192;2023-12-20T08:03:36;95065.78;;;7.94;43.91
61961;BME280;47923;42.506;24.192;2023-12-20T08:06:02;95410.69;;;10.97;42.13
61961;BME280;47923;42.506;24.192;2023-12-20T08:08:27;95307.72;;;9.33;42.97
61961;BME280;47923;42.506;24.192;2023-12-20T08:10:53;95456.59;;;9.26;46.45
61961;BME280;47923;42.506;24.192;2023-12-20T08:13:18;95383.31;;;8.42;48.32
61961;BME280;47923;42.506;24.192;2023-12-20T08:15:44;95081.72;;;6.64;49.36
61961;BME280;47923;42.506;24.192;2023-12-20T08:18:09;95436.34;;;8.85;48.67
61961;BME280;47923;42.506;24.192;2023-12-20T08:20:35;95402.16;;;8.42;48.85
61961;BME280;47923;42.506;24.192;2023-12-20T08:23:00;94779.97;;;3.80;50.44
61961;BME280;47923;42.506;24.192;2023-12-20T08:25:25;95423.81;;;8.93;49.24
61961;BME280;47923;42.506;24.192;2023-12-20T08:27:52;95276.38;;;8.58;46.87
61961;BME280;47923;42.506;24.192;2023-12-20T08:30:18;94811.47;;;6.37;46.19
61961;BME280;47923;42.506;24.192;2023-12-20T08:32:47;95269.00;;;10.26;43.22
61961;BME280;47923;42.506;24.192;2023-12-20T08:35:13;95058.59;;;9.37;42.61
61961;BME280;47923;42.506;24.192;2023-12-20T08:37:38;95094.25;;;9.73;42.96
61961;BME280;47923;42.506;24.192;2023-12-20T08:40:04;95009.06;;;9.72;41.03
61961;BME280;47923;42.506;24.192;2023-12-20T08:42:30;95012.72;;;10.40;40.37
61961;BME280;47923;42.506;24.192;2023-12-20T08:44:57;95379.69;;;12.71;40.21
61961;BME280;47923;42.506;24.192;2023-12-20T08:47:23;95339.78;;;12.27;40.79
61961;BME280;47923;42.506;24.192;2023-12-20T08:49:49;95403.66;;;13.13;39.45
61961;BME280;47923;42.506;24.192;2023-12-20T08:52:14;95114.16;;;12.20;39.63
61961;BME280;47923;42.506;24.192;2023-12-20T08:54:40;95019.31;;;11.57;38.56
61961;BME280;47923;42.506;24.192;2023-12-20T08:57:05;95378.28;;;14.05;39.65
61961;BME280;47923;42.506;24.192;2023-12-20T08:59:32;95286.84;;;14.62;37.55
61961;BME280;47923;42.506;24.192;2023-12-20T09:01:57;95210.69;;;14.37;35.04
61961;BME280;47923;42.506;24.192;2023-12-20T09:04:23;95357.09;;;15.71;34.79
61961;BME280;47923;42.506;24.192;2023-12-20T09:06:48;95343.13;;;15.51;34.51
61961;BME280;47923;42.506;24.192;2023-12-20T09:09:14;95342.75;;;15.35;35.05
61961;BME280;47923;42.506;24.192;2023-12-20T09:11:39;95310.13;;;15.10;35.99
61961;BME280;47923;42.506;24.192;2023-12-20T09:14:05;95337.34;;;15.10;36.71
61961;BME280;47923;42.506;24.192;2023-12-20T09:16:30;95020.16;;;11.21;39.33
61961;BME280;47923;42.506;24.192;2023-12-20T09:18:57;95312.22;;;12.62;40.59
61961;BME280;47923;42.506;24.192;2023-12-20T09:21:22;95292.69;;;13.49;41.36
61961;BME280;47923;42.506;24.192;2023-12-20T09:23:48;95229.59;;;13.80;39.23
61961;BME280;47923;42.506;24.192;2023-12-20T09:26:13;95180.34;;;13.71;36.93
61961;BME280;47923;42.506;24.192;2023-12-20T09:28:39;95208.00;;;14.48;36.54
61961;BME280;47923;42.506;24.192;2023-12-20T09:31:06;95080.66;;;14.25;34.53
61961;BME280;47923;42.506;24.192;2023-12-20T09:33:32;95049.22;;;14.10;33.70
61961;BME280;47923;42.506;24.192;2023-12-20T09:35:58;94808.19;;;13.09;36.04
61961;BME280;47923;42.506;24.192;2023-12-20T09:38:23;95283.94;;;17.02;34.49
61961;BME280;47923;42.506;24.192;2023-12-20T09:40:49;95269.84;;;16.58;32.27
61961;BME280;47923;42.506;24.192;2023-12-20T09:43:15;95280.38;;;15.94;33.78
61961;BME280;47923;42.506;24.192;2023-12-20T09:45:42;95268.47;;;15.41;35.96
61961;BME280;47923;42.506;24.192;2023-12-20T09:48:10;95264.53;;;15.53;36.37
61961;BME280;47923;42.506;24.192;2023-12-20T09:50:36;95151.69;;;14.20;37.19
61961;BME280;47923;42.506;24.192;2023-12-20T09:53:02;95253.75;;;15.21;36.99
61961;BME280;47923;42.506;24.192;2023-12-20T09:55:30;95062.41;;;14.47;36.71
61961;BME280;47923;42.506;24.192;2023-12-20T09:57:57;95245.44;;;16.89;36.12
61961;BME280;47923;42.506;24.192;2023-12-20T10:00:22;95115.63;;;17.26;29.65
61961;BME280;47923;42.506;24.192;2023-12-20T10:02:58;95229.09;;;18.49;30.14
61961;BME280;47923;42.506;24.192;2023-12-20T10:05:31;95215.41;;;17.30;32.63
61961;BME280;47923;42.506;24.192;2023-12-20T10:07:58;95212.47;;;17.14;33.17
61961;BME280;47923;42.506;24.192;2023-12-20T10:10:23;95123.63;;;16.30;33.73
61961;BME280;47923;42.506;24.192;2023-12-20T10:13:03;95202.47;;;16.00;34.54
61961;BME280;47923;42.506;24.192;2023-12-20T10:15:29;94910.06;;;13.63;36.02
61961;BME280;47923;42.506;24.192;2023-12-20T10:17:56;95203.50;;;15.51;35.52
61961;BME280;47923;42.506;24.192;2023-12-20T10:20:22;95210.78;;;15.75;34.66
61961;BME280;47923;42.506;24.192;2023-12-20T10:22:47;94659.84;;;13.02;34.87
61961;BME280;47923;42.506;24.192;2023-12-20T10:25:14;95186.31;;;17.17;32.60
61961;BME280;47923;42.506;24.192;2023-12-20T10:27:39;95028.56;;;15.91;33.00
61961;BME280;47923;42.506;24.192;2023-12-20T10:30:05;95152.16;;;17.66;31.78
61961;BME280;47923;42.506;24.192;2023-12-20T10:32:31;94866.56;;;16.64;32.64
61961;BME280;47923;42.506;24.192;2023-12-20T10:34:56;94958.09;;;17.26;30.89
61961;BME280;47923;42.506;24.192;2023-12-20T10:37:22;95016.25;;;16.93;30.47
61961;BME280;47923;42.506;24.192;2023-12-20T10:39:53;95161.56;;;18.19;30.78
61961;BME280;47923;42.506;24.192;2023-12-20T10:42:30;95162.28;;;18.73;30.42
61961;BME280;47923;42.506;24.192;2023-12-20T10:44:56;94762.06;;;16.44;30.84
61961;BME280;47923;42.506;24.192;2023-12-20T10:47:22;95156.78;;;19.37;29.02
61961;BME280;47923;42.506;24.192;2023-12-20T10:49:51;95165.84;;;19.14;29.38
61961;BME280;47923;42.506;24.192;2023-12-20T10:52:17;94602.44;;;15.38;30.19
61961;BME280;47923;42.506;24.192;2023-12-20T10:54:42;95157.28;;;19.31;29.67
61961;BME280;47923;42.506;24.192;2023-12-20T10:57:08;95145.44;;;19.18;28.31
61961;BME280;47923;42.506;24.192;2023-12-20T10:59:36;95030.59;;;19.11;27.33
61961;BME280;47923;42.506;24.192;2023-12-20T11:02:03;94865.28;;;17.93;27.55
61961;BME280;47923;42.506;24.192;2023-12-20T11:04:56;95126.59;;;20.12;28.08
61961;BME280;47923;42.506;24.192;2023-12-20T11:07:43;95117.13;;;19.81;28.05
61961;BME280;47923;42.506;24.192;2023-12-20T11:10:21;95117.72;;;19.72;28.12
61961;BME280;47923;42.506;24.192;2023-12-20T11:15:14;94969.56;;;18.11;28.77
61961;BME280;47923;42.506;24.192;2023-12-20T11:17:40;95098.38;;;19.23;28.80
61961;BME280;47923;42.506;24.192;2023-12-20T11:20:07;95023.06;;;19.31;28.54
61961;BME280;47923;42.506;24.192;2023-12-20T11:22:35;94863.31;;;18.33;27.92
61961;BME280;47923;42.506;24.192;2023-12-20T11:25:06;95084.75;;;20.25;27.83
61961;BME280;47923;42.506;24.192;2023-12-20T11:27:36;95081.94;;;20.28;27.22
61961;BME280;47923;42.506;24.192;2023-12-20T11:30:04;94770.13;;;17.88;28.53
61961;BME280;47923;42.506;24.192;2023-12-20T11:32:36;94873.69;;;18.02;28.55
61961;BME280;47923;42.506;24.192;2023-12-20T11:35:17;94873.94;;;18.47;28.75
61961;BME280;47923;42.506;24.192;2023-12-20T11:37:45;95067.78;;;18.89;29.31
61961;BME280;47923;42.506;24.192;2023-12-20T11:40:15;95043.88;;;18.73;29.92
61961;BME280;47923;42.506;24.192;2023-12-20T11:42:51;95037.25;;;19.10;29.63
61961;BME280;47923;42.506;24.192;2023-12-20T11:45:18;94967.03;;;19.20;30.31
61961;BME280;47923;42.506;24.192;2023-12-20T11:47:48;94665.97;;;16.63;29.44
61961;BME280;47923;42.506;24.192;2023-12-20T11:50:17;94795.66;;;16.91;29.81
61961;BME280;47923;42.506;24.192;2023-12-20T11:52:43;94916.31;;;18.00;30.34
61961;BME280;47923;42.506;24.192;2023-12-20T11:55:08;95033.97;;;18.12;31.43
61961;BME280;47923;42.506;24.192;2023-12-20T11:57:34;94947.22;;;17.23;31.66
61961;BME280;47923;42.506;24.192;2023-12-20T11:59:59;94510.56;;;13.79;31.68
61961;BME280;47923;42.506;24.192;2023-12-20T12:02:25;95036.78;;;16.67;32.57
61961;BME280;47923;42.506;24.192;2023-12-20T12:04:50;95048.72;;;16.01;33.84
61961;BME280;47923;42.506;24.192;2023-12-20T12:07:16;95029.34;;;15.95;34.87
61961;BME280;47923;42.506;24.192;2023-12-20T12:09:43;94868.47;;;14.79;34.65
61961;BME280;47923;42.506;24.192;2023-12-20T12:12:10;95033.09;;;14.90;36.39
61961;BME280;47923;42.506;24.192;2023-12-20T12:14:36;95035.75;;;15.08;37.04
61961;BME280;47923;42.506;24.192;2023-12-20T12:17:03;95027.91;;;15.17;37.22
61961;BME280;47923;42.506;24.192;2023-12-20T12:19:29;94867.28;;;14.06;37.61
61961;BME280;47923;42.506;24.192;2023-12-20T12:22:11;95016.56;;;14.56;38.94
61961;BME280;47923;42.506;24.192;2023-12-20T12:24:41;94535.03;;;11.22;39.35
61961;BME280;47923;42.506;24.192;2023-12-20T12:27:07;94939.88;;;13.88;40.38
61961;BME280;47923;42.506;24.192;2023-12-20T12:29:36;94491.75;;;11.04;40.52
61961;BME280;47923;42.506;24.192;2023-12-20T12:32:06;94785.34;;;13.03;40.69
61961;BME280;47923;42.506;24.192;2023-12-20T12:34:32;94951.50;;;13.92;41.36
61961;BME280;47923;42.506;24.192;2023-12-20T12:36:59;94900.38;;;13.05;42.20
61961;BME280;47923;42.506;24.192;2023-12-20T12:39:24;94941.00;;;12.73;43.79
61961;BME280;47923;42.506;24.192;2023-12-20T12:41:50;95024.38;;;13.19;44.10
61961;BME280;47923;42.506;24.192;2023-12-20T12:44:16;95034.91;;;13.60;43.74
61961;BME280;47923;42.506;24.192;2023-12-20T12:46:43;95019.00;;;13.30;44.41